Time;durP1;ratioP1;P1;durP2;ratioP2;P2;SDS_P1;SDS_P2;PMS_P1;PMS_P2;Temp;Humidity;BMP_temperature;BMP_pressure;BME280_temperature;BME280_humidity;BME280_pressure;Samples;Min_cycle;Max_cycle;Signal;HPM_P1;HPM_P2
2023/06/02 00:00:40;;;;;;;11.18;2.88;;;;;;;;;;4987056;28;99963;-81
2023/06/02 00:03:08;;;;;;;8.20;3.05;;;;;;;;;;4985038;28;98605;-78
2023/06/02 00:05:35;;;;;;;19.60;3.55;;;;;;;;;;4986816;28;98631;-80
2023/06/02 00:08:02;;;;;;;11.35;3.45;;;;;;;;;;4989636;28;98930;-78
2023/06/02 00:10:29;;;;;;;12.60;3.00;;;;;;;;;;4990230;28;98341;-80
2023/06/02 00:12:55;;;;;;;14.38;4.85;;;;;;;;;;4990840;28;98744;-79
2023/06/02 00:15:22;;;;;;;14.82;3.38;;;;;;;;;;4992372;28;98609;-79
2023/06/02 00:17:48;;;;;;;16.55;4.97;;;;;;;;;;4989843;28;100022;-77
2023/06/02 00:20:17;;;;;;;11.00;2.92;;;;;;;;;;4990940;28;98914;-79
2023/06/02 00:22:46;;;;;;;14.50;3.38;;;;;;;;;;4981352;28;98427;-80
2023/06/02 00:25:13;;;;;;;13.15;3.03;;;;;;;;;;4990202;28;99469;-80
2023/06/02 00:27:39;;;;;;;9.07;2.78;;;;;;;;;;4989486;28;99555;-78
2023/06/02 00:30:06;;;;;;;22.90;3.97;;;;;;;;;;4990011;28;98279;-77
2023/06/02 00:32:32;;;;;;;14.10;3.35;;;;;;;;;;4991390;28;99827;-79
2023/06/02 00:34:59;;;;;;;12.98;3.70;;;;;;;;;;4993701;28;99802;-80
2023/06/02 00:37:26;;;;;;;17.77;3.90;;;;;;;;;;4989630;28;98769;-79
2023/06/02 00:39:52;;;;;;;12.13;3.03;;;;;;;;;;4990852;28;98692;-78
2023/06/02 00:42:19;;;;;;;16.27;4.28;;;;;;;;;;4989370;28;98262;-77
2023/06/02 00:44:45;;;;;;;7.60;2.70;;;;;;;;;;4990075;28;99052;-77
2023/06/02 00:47:12;;;;;;;7.57;3.25;;;;;;;;;;4992920;28;98734;-79
2023/06/02 00:49:38;;;;;;;9.23;3.25;;;;;;;;;;4991366;28;98337;-79
2023/06/02 00:52:05;;;;;;;10.35;2.97;;;;;;;;;;4992522;28;99505;-80
2023/06/02 00:54:32;;;;;;;15.30;3.50;;;;;;;;;;4996738;28;100219;-79
2023/06/02 00:56:58;;;;;;;15.02;3.28;;;;;;;;;;5000893;28;98253;-80
2023/06/02 00:59:25;;;;;;;13.63;3.88;;;;;;;;;;4993926;28;102151;-79
2023/06/02 01:01:51;;;;;;;16.48;3.25;;;;;;;;;;4990577;28;98366;-77
2023/06/02 01:04:18;;;;;;;14.95;3.58;;;;;;;;;;4989657;28;98437;-77
2023/06/02 01:06:48;;;;;;;14.35;3.38;;;;;;;;;;4986862;28;99045;-78
2023/06/02 01:09:16;;;;;;;13.18;3.47;;;;;;;;;;4989721;28;98326;-79
2023/06/02 01:11:43;;;;;;;19.77;4.47;;;;;;;;;;4988876;28;98308;-78
2023/06/02 01:14:10;;;;;;;14.95;3.60;;;;;;;;;;4990293;28;99036;-78
2023/06/02 01:16:38;;;;;;;14.48;3.15;;;;;;;;;;4989269;28;98234;-81
2023/06/02 01:19:13;;;;;;;23.88;5.70;;;;;;;;;;4992060;28;98876;-78
2023/06/02 01:21:41;;;;;;;11.85;2.88;;;;;;;;;;4989500;28;98304;-78
2023/06/02 01:24:07;;;;;;;12.98;3.08;;;;;;;;;;4988347;28;99337;-78
2023/06/02 01:26:34;;;;;;;10.23;2.67;;;;;;;;;;4988047;28;99907;-78
2023/06/02 01:29:01;;;;;;;12.48;3.50;;;;;;;;;;4988298;28;98178;-79
2023/06/02 01:31:35;;;;;;;8.38;3.13;;;;;;;;;;4986499;28;100726;-79
2023/06/02 01:34:08;;;;;;;10.38;3.50;;;;;;;;;;4988256;28;100044;-79
2023/06/02 01:36:36;;;;;;;15.85;3.67;;;;;;;;;;4988952;28;98127;-79
2023/06/02 01:39:03;;;;;;;17.20;4.10;;;;;;;;;;4989127;28;98677;-79
2023/06/02 01:41:32;;;;;;;15.50;4.07;;;;;;;;;;4989597;28;101181;-79
2023/06/02 01:43:59;;;;;;;11.52;3.50;;;;;;;;;;4989464;28;98747;-78
2023/06/02 01:46:26;;;;;;;12.02;3.20;;;;;;;;;;4987608;28;102370;-80
2023/06/02 01:48:53;;;;;;;7.85;3.08;;;;;;;;;;4987374;28;98867;-81
2023/06/02 01:51:19;;;;;;;10.48;3.25;;;;;;;;;;4989585;28;98693;-81
2023/06/02 01:53:46;;;;;;;10.60;3.30;;;;;;;;;;4986706;28;100971;-78
2023/06/02 01:56:12;;;;;;;12.13;3.13;;;;;;;;;;4988522;28;98303;-78
2023/06/02 01:58:38;;;;;;;9.52;2.55;;;;;;;;;;4988152;28;98475;-78
2023/06/02 02:01:05;;;;;;;8.80;2.95;;;;;;;;;;4986833;28;101869;-78
2023/06/02 02:03:32;;;;;;;9.02;2.72;;;;;;;;;;4992557;28;98581;-77
2023/06/02 02:05:59;;;;;;;11.98;3.70;;;;;;;;;;4989033;28;98908;-78
2023/06/02 02:08:26;;;;;;;12.82;3.55;;;;;;;;;;4987890;28;98392;-78
2023/06/02 02:10:52;;;;;;;11.77;2.92;;;;;;;;;;4989675;28;98262;-78
2023/06/02 02:13:19;;;;;;;8.48;2.38;;;;;;;;;;4989067;28;98656;-78
2023/06/02 02:15:45;;;;;;;15.77;3.17;;;;;;;;;;4987898;28;98335;-80
2023/06/02 02:18:12;;;;;;;12.32;2.90;;;;;;;;;;4987730;28;101212;-78
2023/06/02 02:20:42;;;;;;;11.07;2.88;;;;;;;;;;4987852;28;98744;-77
2023/06/02 02:23:08;;;;;;;11.65;3.00;;;;;;;;;;4995102;28;98408;-79
2023/06/02 02:25:35;;;;;;;12.32;2.42;;;;;;;;;;4988169;28;99121;-79
2023/06/02 02:28:01;;;;;;;10.35;3.03;;;;;;;;;;4988556;28;100109;-78
2023/06/02 02:30:30;;;;;;;16.00;3.50;;;;;;;;;;4985679;28;101095;-78
2023/06/02 02:32:57;;;;;;;8.35;2.90;;;;;;;;;;4986590;28;101555;-78
2023/06/02 02:35:24;;;;;;;6.60;3.47;;;;;;;;;;4987783;28;98214;-79
2023/06/02 02:37:50;;;;;;;13.85;3.95;;;;;;;;;;4986998;28;100328;-79
2023/06/02 02:40:22;;;;;;;10.38;3.35;;;;;;;;;;4987095;28;98917;-78
2023/06/02 02:42:48;;;;;;;8.63;2.70;;;;;;;;;;4988422;28;98070;-78
2023/06/02 02:45:15;;;;;;;7.50;2.65;;;;;;;;;;4981507;28;101298;-78
2023/06/02 02:47:42;;;;;;;9.23;3.40;;;;;;;;;;4986941;28;98427;-79
2023/06/02 02:50:08;;;;;;;13.27;3.85;;;;;;;;;;4987870;28;98882;-79
2023/06/02 02:52:35;;;;;;;14.32;3.38;;;;;;;;;;4986632;28;101222;-79
2023/06/02 02:55:03;;;;;;;14.13;3.65;;;;;;;;;;4986833;28;98754;-79
2023/06/02 02:57:31;;;;;;;11.95;3.00;;;;;;;;;;4986150;28;99489;-78
2023/06/02 02:59:58;;;;;;;15.63;2.85;;;;;;;;;;4986376;28;101256;-78
2023/06/02 03:02:26;;;;;;;13.27;3.15;;;;;;;;;;4987685;28;98253;-79
2023/06/02 03:04:52;;;;;;;18.08;3.58;;;;;;;;;;4999724;28;98262;-78
2023/06/02 03:07:19;;;;;;;11.45;2.58;;;;;;;;;;4994053;28;101282;-79
2023/06/02 03:09:47;;;;;;;12.23;3.30;;;;;;;;;;4989540;28;100227;-78
2023/06/02 03:12:13;;;;;;;13.27;2.97;;;;;;;;;;4988784;28;98956;-78
2023/06/02 03:14:39;;;;;;;21.25;3.85;;;;;;;;;;4988570;28;98218;-78
2023/06/02 03:17:06;;;;;;;12.68;3.05;;;;;;;;;;4986303;28;101614;-78
2023/06/02 03:19:35;;;;;;;15.02;3.15;;;;;;;;;;4985462;28;101826;-78
2023/06/02 03:22:02;;;;;;;10.05;2.88;;;;;;;;;;4987707;28;98287;-79
2023/06/02 03:24:30;;;;;;;14.65;3.13;;;;;;;;;;4986066;28;99514;-78
2023/06/02 03:27:00;;;;;;;18.60;2.70;;;;;;;;;;4985969;28;102006;-77
2023/06/02 03:29:26;;;;;;;12.63;3.17;;;;;;;;;;4982206;28;98148;-77
2023/06/02 03:31:53;;;;;;;11.60;2.90;;;;;;;;;;4986125;28;99878;-77
2023/06/02 03:34:23;;;;;;;14.15;3.30;;;;;;;;;;4983687;28;98460;-78
2023/06/02 03:36:52;;;;;;;18.40;3.70;;;;;;;;;;4987025;28;98782;-78
2023/06/02 03:39:19;;;;;;;13.02;3.03;;;;;;;;;;4986486;28;98692;-79
2023/06/02 03:41:46;;;;;;;15.93;2.85;;;;;;;;;;4986424;28;98628;-78
2023/06/02 03:44:13;;;;;;;17.33;3.97;;;;;;;;;;4987763;28;98842;-79
2023/06/02 03:46:40;;;;;;;20.20;3.72;;;;;;;;;;4985469;28;102085;-80
2023/06/02 03:49:06;;;;;;;16.52;2.75;;;;;;;;;;4986209;28;99344;-78
2023/06/02 03:51:33;;;;;;;21.30;3.22;;;;;;;;;;4988035;28;98857;-80
2023/06/02 03:54:01;;;;;;;5.75;2.65;;;;;;;;;;4985912;28;98930;-78
2023/06/02 03:56:28;;;;;;;25.45;3.42;;;;;;;;;;4986817;28;98297;-78
2023/06/02 03:58:55;;;;;;;17.60;4.63;;;;;;;;;;4980526;28;99961;-79
2023/06/02 04:01:23;;;;;;;14.55;2.78;;;;;;;;;;4988177;28;98343;-79
2023/06/02 04:03:51;;;;;;;9.35;3.00;;;;;;;;;;4990007;28;100112;-78
2023/06/02 04:06:18;;;;;;;12.07;2.65;;;;;;;;;;4986893;28;99780;-79
2023/06/02 04:08:46;;;;;;;9.93;3.10;;;;;;;;;;4985124;28;98656;-80
2023/06/02 04:11:13;;;;;;;19.70;3.30;;;;;;;;;;4987007;28;98388;-79
2023/06/02 04:13:40;;;;;;;10.02;2.97;;;;;;;;;;4988683;28;100939;-78
2023/06/02 04:16:07;;;;;;;15.80;3.13;;;;;;;;;;4985358;28;99667;-78
2023/06/02 04:18:38;;;;;;;12.20;3.05;;;;;;;;;;4986563;28;99300;-77
2023/06/02 04:21:06;;;;;;;21.05;3.58;;;;;;;;;;4985813;28;98680;-78
2023/06/02 04:23:33;;;;;;;13.05;2.88;;;;;;;;;;4981619;28;100425;-77
2023/06/02 04:26:02;;;;;;;16.70;3.03;;;;;;;;;;4985383;28;101612;-77
2023/06/02 04:28:29;;;;;;;15.50;3.67;;;;;;;;;;4985197;28;98229;-78
2023/06/02 04:30:58;;;;;;;13.05;2.88;;;;;;;;;;4985293;28;100721;-78
2023/06/02 04:33:27;;;;;;;20.67;3.97;;;;;;;;;;4987934;28;101295;-78
2023/06/02 04:35:55;;;;;;;9.43;3.22;;;;;;;;;;4984449;28;100236;-79
2023/06/02 04:38:21;;;;;;;11.30;3.35;;;;;;;;;;4986201;28;100301;-78
2023/06/02 04:40:48;;;;;;;19.90;3.47;;;;;;;;;;4985666;28;98790;-78
2023/06/02 04:43:14;;;;;;;15.90;3.05;;;;;;;;;;4985337;28;100815;-77
2023/06/02 04:45:45;;;;;;;15.23;2.92;;;;;;;;;;4985525;28;101296;-78
2023/06/02 04:48:16;;;;;;;12.68;3.13;;;;;;;;;;4985074;28;98418;-77
2023/06/02 04:50:42;;;;;;;13.32;3.72;;;;;;;;;;4986209;28;98386;-78
2023/06/02 04:53:11;;;;;;;13.88;2.85;;;;;;;;;;4988232;28;101071;-78
2023/06/02 04:55:37;;;;;;;12.10;3.30;;;;;;;;;;4995608;28;98271;-77
2023/06/02 04:58:04;;;;;;;11.70;2.47;;;;;;;;;;4990989;28;98708;-78
2023/06/02 05:00:31;;;;;;;15.73;3.08;;;;;;;;;;4988834;28;98389;-79
2023/06/02 05:02:58;;;;;;;13.30;2.88;;;;;;;;;;4989260;28;101652;-78
2023/06/02 05:05:27;;;;;;;12.77;2.78;;;;;;;;;;4987374;28;101657;-77
2023/06/02 05:07:54;;;;;;;10.57;2.85;;;;;;;;;;4988569;28;98621;-78
2023/06/02 05:10:21;;;;;;;17.58;3.22;;;;;;;;;;4988430;28;101046;-77
2023/06/02 05:12:49;;;;;;;13.60;2.67;;;;;;;;;;4986524;28;100098;-77
2023/06/02 05:15:18;;;;;;;12.25;3.35;;;;;;;;;;4988097;28;98502;-76
2023/06/02 05:17:47;;;;;;;11.13;2.70;;;;;;;;;;4990332;28;100339;-77
2023/06/02 05:20:17;;;;;;;8.55;2.55;;;;;;;;;;4988199;28;98264;-77
2023/06/02 05:22:44;;;;;;;10.48;2.85;;;;;;;;;;4990106;28;99279;-79
2023/06/02 05:25:12;;;;;;;10.75;2.75;;;;;;;;;;4987546;28;101679;-79
2023/06/02 05:27:40;;;;;;;15.25;3.42;;;;;;;;;;4968413;28;98312;-78
2023/06/02 05:30:08;;;;;;;17.05;3.78;;;;;;;;;;4988498;28;100331;-76
2023/06/02 05:32:34;;;;;;;9.05;3.38;;;;;;;;;;4988715;28;98699;-78
2023/06/02 05:35:03;;;;;;;15.73;3.20;;;;;;;;;;4971398;28;98389;-77
2023/06/02 05:37:30;;;;;;;11.38;3.00;;;;;;;;;;4988281;28;99437;-79
2023/06/02 05:39:57;;;;;;;14.75;4.13;;;;;;;;;;4990212;28;99047;-77
2023/06/02 05:42:25;;;;;;;13.30;2.65;;;;;;;;;;4988271;28;100517;-77
2023/06/02 05:44:52;;;;;;;14.85;3.83;;;;;;;;;;4971130;28;101414;-78
2023/06/02 05:47:19;;;;;;;9.65;2.80;;;;;;;;;;4986849;28;98359;-77
2023/06/02 05:49:47;;;;;;;15.80;3.53;;;;;;;;;;4988122;28;101325;-77
2023/06/02 05:52:13;;;;;;;12.10;2.92;;;;;;;;;;4989535;28;100338;-77
2023/06/02 05:54:40;;;;;;;13.20;3.17;;;;;;;;;;4988091;28;98344;-77
2023/06/02 05:57:06;;;;;;;10.45;2.88;;;;;;;;;;4986914;28;99413;-79
2023/06/02 05:59:33;;;;;;;20.42;3.55;;;;;;;;;;4987498;28;98869;-78
2023/06/02 06:02:03;;;;;;;6.55;2.60;;;;;;;;;;4996518;28;98599;-79
2023/06/02 06:04:32;;;;;;;6.93;2.60;;;;;;;;;;4968898;28;99057;-79
2023/06/02 06:06:59;;;;;;;21.38;3.97;;;;;;;;;;4981832;28;100580;-78
2023/06/02 06:09:26;;;;;;;9.90;2.97;;;;;;;;;;4987186;28;98345;-78
2023/06/02 06:11:52;;;;;;;16.70;3.42;;;;;;;;;;4986209;28;101474;-78
2023/06/02 06:14:19;;;;;;;12.57;3.58;;;;;;;;;;4986762;28;98595;-78
2023/06/02 06:16:47;;;;;;;27.13;3.83;;;;;;;;;;4987049;28;100046;-75
2023/06/02 06:19:13;;;;;;;14.15;3.67;;;;;;;;;;4982457;28;100399;-76
2023/06/02 06:21:41;;;;;;;16.25;4.78;;;;;;;;;;4980046;28;101075;-83
2023/06/02 06:24:08;;;;;;;14.05;3.40;;;;;;;;;;4985747;28;99941;-78
2023/06/02 06:26:36;;;;;;;15.02;2.90;;;;;;;;;;4984977;28;99724;-77
2023/06/02 06:29:03;;;;;;;19.83;4.13;;;;;;;;;;4982761;28;99583;-77
2023/06/02 06:31:34;;;;;;;9.85;2.45;;;;;;;;;;4987232;28;101651;-77
2023/06/02 06:34:02;;;;;;;11.07;3.33;;;;;;;;;;4986878;28;98325;-80
2023/06/02 06:36:30;;;;;;;11.73;2.60;;;;;;;;;;4985996;28;101134;-78
2023/06/02 06:38:58;;;;;;;14.07;3.20;;;;;;;;;;4983294;28;98909;-78
2023/06/02 06:41:27;;;;;;;12.38;2.35;;;;;;;;;;4985864;28;100169;-77
2023/06/02 06:43:54;;;;;;;14.32;3.67;;;;;;;;;;4988625;28;100693;-78
2023/06/02 06:46:20;;;;;;;7.60;2.72;;;;;;;;;;4985472;28;98313;-79
2023/06/02 06:48:49;;;;;;;7.32;2.38;;;;;;;;;;4988070;28;100179;-78
2023/06/02 06:51:17;;;;;;;7.85;2.55;;;;;;;;;;4984069;28;99901;-79
2023/06/02 06:53:43;;;;;;;19.23;3.58;;;;;;;;;;4985510;28;98694;-78
2023/06/02 06:56:10;;;;;;;12.27;2.42;;;;;;;;;;4988859;28;99765;-78
2023/06/02 06:58:37;;;;;;;11.45;2.72;;;;;;;;;;4991359;28;100089;-77
2023/06/02 07:01:03;;;;;;;11.90;3.95;;;;;;;;;;4991927;27;98312;-79
2023/06/02 07:03:30;;;;;;;6.53;2.00;;;;;;;;;;4986216;28;99581;-77
2023/06/02 07:05:56;;;;;;;15.40;3.20;;;;;;;;;;4992545;28;99146;-77
2023/06/02 07:08:23;;;;;;;11.10;3.08;;;;;;;;;;4989658;28;99835;-76
2023/06/02 07:10:49;;;;;;;11.52;2.85;;;;;;;;;;4986277;28;100284;-77
2023/06/02 07:13:17;;;;;;;10.95;3.03;;;;;;;;;;4980055;28;98238;-78
2023/06/02 07:15:43;;;;;;;16.65;3.90;;;;;;;;;;4987883;28;98566;-80
2023/06/02 07:18:10;;;;;;;10.88;3.78;;;;;;;;;;4989211;28;100285;-79
2023/06/02 07:20:36;;;;;;;9.38;2.63;;;;;;;;;;4988703;28;98242;-80
2023/06/02 07:23:03;;;;;;;26.77;4.05;;;;;;;;;;4989386;28;98345;-79
2023/06/02 07:25:29;;;;;;;11.23;2.55;;;;;;;;;;4989652;28;99775;-80
2023/06/02 07:27:56;;;;;;;15.15;3.55;;;;;;;;;;4995244;28;98446;-76
2023/06/02 07:30:22;;;;;;;19.15;3.47;;;;;;;;;;4990087;28;99893;-77
2023/06/02 07:32:50;;;;;;;8.23;2.20;;;;;;;;;;4983070;28;98583;-77
2023/06/02 07:35:16;;;;;;;13.98;3.30;;;;;;;;;;4987604;28;98340;-76
2023/06/02 07:37:43;;;;;;;19.65;3.30;;;;;;;;;;4980565;28;99864;-78
2023/06/02 07:40:09;;;;;;;14.15;2.90;;;;;;;;;;4986392;28;98464;-76
2023/06/02 07:42:36;;;;;;;15.73;3.10;;;;;;;;;;4982624;28;99725;-77
2023/06/02 07:45:02;;;;;;;14.77;3.53;;;;;;;;;;4992988;28;99008;-76
2023/06/02 07:47:29;;;;;;;23.33;3.55;;;;;;;;;;4977400;28;98562;-76
2023/06/02 07:49:55;;;;;;;12.05;3.15;;;;;;;;;;4982355;28;99521;-77
2023/06/02 07:52:22;;;;;;;9.30;3.33;;;;;;;;;;4981724;28;98257;-76
2023/06/02 07:54:48;;;;;;;13.88;3.47;;;;;;;;;;4977377;28;99531;-76
2023/06/02 07:57:15;;;;;;;10.75;3.45;;;;;;;;;;4987320;28;100021;-78
2023/06/02 07:59:41;;;;;;;11.90;4.10;;;;;;;;;;4981550;28;100842;-77
2023/06/02 08:02:08;;;;;;;14.48;3.67;;;;;;;;;;4984407;28;98478;-77
2023/06/02 08:04:35;;;;;;;11.63;3.38;;;;;;;;;;4974373;28;99888;-75
2023/06/02 08:07:03;;;;;;;20.20;3.72;;;;;;;;;;4983468;28;99734;-77
2023/06/02 08:09:30;;;;;;;16.13;3.50;;;;;;;;;;4985740;28;99701;-77
2023/06/02 08:11:56;;;;;;;21.45;3.80;;;;;;;;;;4982532;28;100204;-77
2023/06/02 08:14:23;;;;;;;11.35;2.70;;;;;;;;;;4978717;28;99422;-77
2023/06/02 08:16:52;;;;;;;15.55;3.13;;;;;;;;;;4986273;28;99866;-76
2023/06/02 08:19:25;;;;;;;12.13;3.47;;;;;;;;;;4985962;28;99520;-78
2023/06/02 08:21:51;;;;;;;8.25;2.53;;;;;;;;;;4981558;28;99439;-77
2023/06/02 08:24:20;;;;;;;14.82;2.80;;;;;;;;;;4986544;28;100594;-76
2023/06/02 08:26:48;;;;;;;11.63;3.38;;;;;;;;;;4984177;28;98307;-77
2023/06/02 08:29:15;;;;;;;12.80;2.75;;;;;;;;;;4986310;28;98839;-76
2023/06/02 08:31:42;;;;;;;11.40;3.00;;;;;;;;;;4986433;28;98212;-76
2023/06/02 08:34:09;;;;;;;11.30;3.03;;;;;;;;;;4993565;28;98205;-75
2023/06/02 08:36:36;;;;;;;16.08;4.00;;;;;;;;;;4992255;28;100258;-76
2023/06/02 08:39:08;;;;;;;14.18;3.15;;;;;;;;;;4994655;28;100357;-77
2023/06/02 08:41:36;;;;;;;12.68;4.20;;;;;;;;;;4989605;28;99627;-77
2023/06/02 08:44:02;;;;;;;16.27;3.10;;;;;;;;;;4989273;28;100612;-77
2023/06/02 08:46:29;;;;;;;15.70;3.45;;;;;;;;;;4990409;28;98261;-76
2023/06/02 08:48:58;;;;;;;12.27;3.58;;;;;;;;;;4989696;28;99381;-77
2023/06/02 08:51:24;;;;;;;13.18;3.55;;;;;;;;;;4982733;28;100333;-77
2023/06/02 08:53:51;;;;;;;8.32;2.78;;;;;;;;;;4990015;28;100300;-77
2023/06/02 08:56:17;;;;;;;14.70;3.28;;;;;;;;;;4988440;28;99918;-77
2023/06/02 08:58:45;;;;;;;20.42;3.97;;;;;;;;;;4986920;28;98237;-76
2023/06/02 09:01:12;;;;;;;21.35;3.90;;;;;;;;;;4989667;28;99643;-76
2023/06/02 09:03:38;;;;;;;19.63;3.75;;;;;;;;;;4989029;28;99539;-77
2023/06/02 09:06:25;;;;;;;12.10;3.17;;;;;;;;;;4989855;28;98159;-76
2023/06/02 09:08:55;;;;;;;16.30;3.50;;;;;;;;;;4988623;28;98428;-77
2023/06/02 09:11:22;;;;;;;14.70;3.90;;;;;;;;;;4987667;28;99892;-77
2023/06/02 09:13:49;;;;;;;26.25;3.25;;;;;;;;;;4984521;28;99087;-77
2023/06/02 09:16:15;;;;;;;18.95;3.50;;;;;;;;;;4987270;28;99754;-77
2023/06/02 09:18:56;;;;;;;46.90;5.95;;;;;;;;;;4985962;28;98589;-77
2023/06/02 09:21:23;;;;;;;14.55;3.15;;;;;;;;;;4985287;28;99411;-76
2023/06/02 09:23:50;;;;;;;15.02;3.25;;;;;;;;;;4985746;28;98955;-78
2023/06/02 09:26:36;;;;;;;15.93;3.95;;;;;;;;;;4979284;28;98678;-79
2023/06/02 09:29:04;;;;;;;7.18;3.35;;;;;;;;;;4988433;28;99607;-76
2023/06/02 09:31:44;;;;;;;15.95;3.65;;;;;;;;;;4983272;28;99056;-78
2023/06/02 09:34:12;;;;;;;14.35;3.17;;;;;;;;;;4990568;28;98199;-77
2023/06/02 09:36:38;;;;;;;19.67;5.72;;;;;;;;;;4984211;28;99721;-79
2023/06/02 09:39:10;;;;;;;7.78;3.55;;;;;;;;;;4980720;28;100073;-77
2023/06/02 09:41:37;;;;;;;13.88;3.25;;;;;;;;;;4984025;28;99784;-76
2023/06/02 09:44:10;;;;;;;16.02;3.65;;;;;;;;;;4976750;28;100099;-76
2023/06/02 09:46:38;;;;;;;22.38;3.92;;;;;;;;;;4982573;28;98219;-77
2023/06/02 09:49:05;;;;;;;15.45;3.67;;;;;;;;;;4985856;28;99457;-76
2023/06/02 09:51:33;;;;;;;10.95;3.67;;;;;;;;;;4980412;28;100928;-76
2023/06/02 09:54:01;;;;;;;12.98;3.30;;;;;;;;;;4980238;28;98262;-76
2023/06/02 09:56:33;;;;;;;17.05;3.75;;;;;;;;;;4985827;28;99346;-76
2023/06/02 09:59:01;;;;;;;10.52;3.33;;;;;;;;;;4985335;28;98844;-76
2023/06/02 10:01:27;;;;;;;14.77;4.88;;;;;;;;;;4980028;28;98221;-76
2023/06/02 10:03:53;;;;;;;16.83;3.25;;;;;;;;;;4976437;28;99611;-78
2023/06/02 10:06:39;;;;;;;9.00;3.08;;;;;;;;;;4988706;28;99165;-77
2023/06/02 10:09:29;;;;;;;11.18;3.63;;;;;;;;;;4982917;28;99539;-78
2023/06/02 10:11:59;;;;;;;16.48;3.92;;;;;;;;;;4989348;28;100097;-76
2023/06/02 10:14:44;;;;;;;10.77;3.38;;;;;;;;;;4978414;28;98822;-74
2023/06/02 10:17:15;;;;;;;12.48;4.00;;;;;;;;;;4988155;28;99331;-78
2023/06/02 10:20:03;;;;;;;9.95;3.45;;;;;;;;;;4989573;28;100304;-77
2023/06/02 10:22:38;;;;;;;17.27;4.28;;;;;;;;;;4989083;28;98044;-77
2023/06/02 10:25:26;;;;;;;15.98;4.50;;;;;;;;;;4989801;28;99638;-77
2023/06/02 10:27:53;;;;;;;12.30;3.80;;;;;;;;;;4985333;28;99306;-78
2023/06/02 10:30:24;;;;;;;10.60;3.42;;;;;;;;;;4981315;28;98487;-77
2023/06/02 10:32:50;;;;;;;19.92;4.65;;;;;;;;;;4980948;28;99299;-77
2023/06/02 10:35:17;;;;;;;17.08;3.95;;;;;;;;;;4982885;28;98671;-77
2023/06/02 10:37:45;;;;;;;13.80;3.80;;;;;;;;;;4984621;28;99393;-77
2023/06/02 10:40:14;;;;;;;13.82;3.75;;;;;;;;;;4987451;28;100021;-77
2023/06/02 10:42:59;;;;;;;13.63;3.90;;;;;;;;;;4986638;28;98302;-77
2023/06/02 10:45:32;;;;;;;13.80;3.72;;;;;;;;;;4986069;28;99544;-77
2023/06/02 10:47:58;;;;;;;;;;;;;;;;;;4991747;28;99756;-77
2023/06/02 10:50:45;;;;;;;10.20;3.55;;;;;;;;;;4990131;28;129071;-78
2023/06/02 10:53:12;;;;;;;26.92;4.72;;;;;;;;;;4990184;28;99933;-76
2023/06/02 10:55:39;;;;;;;17.92;4.53;;;;;;;;;;4992673;28;98221;-77
2023/06/02 10:58:11;;;;;;;14.40;3.67;;;;;;;;;;4988752;28;99861;-79
2023/06/02 11:00:40;;;;;;;22.52;4.05;;;;;;;;;;4986593;28;99852;-76
2023/06/02 11:03:15;;;;;;;16.80;5.25;;;;;;;;;;4987490;28;98285;-77
2023/06/02 11:05:44;;;;;;;12.27;4.10;;;;;;;;;;4987539;28;98437;-77
2023/06/02 11:08:23;;;;;;;15.00;4.18;;;;;;;;;;4978345;28;99858;-77
2023/06/02 11:10:51;;;;;;;19.77;4.35;;;;;;;;;;4984720;28;99418;-74
2023/06/02 11:13:18;;;;;;;12.05;3.60;;;;;;;;;;4982840;28;100024;-76
2023/06/02 11:15:56;;;;;;;18.50;4.60;;;;;;;;;;4988237;28;98375;-76
2023/06/02 11:18:23;;;;;;;8.55;3.22;;;;;;;;;;4978558;28;100107;-78
2023/06/02 11:20:51;;;;;;;14.93;4.35;;;;;;;;;;4986026;28;100409;-78
2023/06/02 11:23:18;;;;;;;18.05;4.25;;;;;;;;;;4984879;28;99325;-78
2023/06/02 11:25:45;;;;;;;14.55;3.90;;;;;;;;;;4982118;28;99290;-79
2023/06/02 11:28:22;;;;;;;15.43;4.00;;;;;;;;;;4981311;28;100051;-78
2023/06/02 11:31:03;;;;;;;13.77;4.18;;;;;;;;;;4986550;28;98386;-78
2023/06/02 11:33:31;;;;;;;15.23;3.90;;;;;;;;;;4983021;28;100151;-77
2023/06/02 11:35:58;;;;;;;14.13;4.05;;;;;;;;;;4987147;28;98246;-77
2023/06/02 11:38:31;;;;;;;11.77;4.07;;;;;;;;;;4982914;28;99093;-77
2023/06/02 11:41:10;;;;;;;10.15;3.60;;;;;;;;;;4975920;28;99237;-77
2023/06/02 11:43:39;;;;;;;17.73;4.97;;;;;;;;;;4979735;28;100056;-76
2023/06/02 11:46:10;;;;;;;10.65;3.80;;;;;;;;;;4978256;28;98535;-76
2023/06/02 11:48:38;;;;;;;11.50;4.57;;;;;;;;;;4984985;28;100145;-76
2023/06/02 11:51:05;;;;;;;8.82;3.75;;;;;;;;;;4985012;28;98331;-75
2023/06/02 11:53:32;;;;;;;12.45;4.15;;;;;;;;;;4983424;28;99589;-77
2023/06/02 11:55:59;;;;;;;11.90;4.40;;;;;;;;;;4981484;28;98565;-77
2023/06/02 11:58:27;;;;;;;12.70;5.05;;;;;;;;;;4980818;28;99452;-78
2023/06/02 12:01:12;;;;;;;15.45;4.78;;;;;;;;;;4977479;28;99366;-77
2023/06/02 12:03:38;;;;;;;17.75;5.00;;;;;;;;;;4986116;28;98830;-78
2023/06/02 12:06:12;;;;;;;16.67;5.05;;;;;;;;;;4986873;28;100939;-78
2023/06/02 12:08:38;;;;;;;13.93;4.60;;;;;;;;;;4987303;28;100317;-77
2023/06/02 12:11:15;;;;;;;17.90;4.72;;;;;;;;;;4990535;28;99353;-76
2023/06/02 12:13:57;;;;;;;19.23;4.68;;;;;;;;;;4990660;28;99364;-77
2023/06/02 12:16:24;;;;;;;13.02;4.85;;;;;;;;;;4986024;28;99012;-76
2023/06/02 12:18:51;;;;;;;16.50;5.18;;;;;;;;;;4989649;28;98586;-78
2023/06/02 12:21:27;;;;;;;14.50;4.28;;;;;;;;;;4989425;28;99951;-76
2023/06/02 12:23:55;;;;;;;11.70;4.75;;;;;;;;;;4989380;28;98517;-75
2023/06/02 12:26:24;;;;;;;17.10;5.30;;;;;;;;;;4985224;28;98522;-75
2023/06/02 12:28:55;;;;;;;13.57;4.60;;;;;;;;;;4982302;28;99317;-78
2023/06/02 12:31:27;;;;;;;16.10;5.20;;;;;;;;;;4985959;28;98493;-77
2023/06/02 12:33:53;;;;;;;12.95;4.68;;;;;;;;;;4980768;28;99479;-77
2023/06/02 12:36:20;;;;;;;16.95;4.18;;;;;;;;;;4981434;28;100235;-78
2023/06/02 12:38:47;;;;;;;16.92;5.13;;;;;;;;;;4993677;28;98282;-78
2023/06/02 12:41:14;;;;;;;21.83;4.22;;;;;;;;;;4988571;28;100247;-77
2023/06/02 12:43:43;;;;;;;15.65;4.75;;;;;;;;;;4989055;28;98930;-77
2023/06/02 12:46:13;;;;;;;18.98;4.68;;;;;;;;;;4987156;28;99469;-78
2023/06/02 12:48:40;;;;;;;17.83;4.50;;;;;;;;;;4988106;28;101541;-75
2023/06/02 12:51:07;;;;;;;15.70;5.32;;;;;;;;;;4989101;28;98236;-77
2023/06/02 12:53:35;;;;;;;15.93;5.40;;;;;;;;;;4989203;28;98856;-76
2023/06/02 12:56:03;;;;;;;14.65;4.43;;;;;;;;;;4984935;28;101121;-78
2023/06/02 12:58:30;;;;;;;15.20;4.50;;;;;;;;;;4989925;28;98984;-76
2023/06/02 13:00:56;;;;;;;14.20;5.38;;;;;;;;;;4989231;28;101668;-78
2023/06/02 13:03:23;;;;;;;17.55;5.65;;;;;;;;;;4981266;28;98633;-76
2023/06/02 13:06:09;;;;;;;17.73;4.65;;;;;;;;;;4988515;28;99987;-78
2023/06/02 13:08:37;;;;;;;11.68;4.57;;;;;;;;;;4988667;28;100234;-77
2023/06/02 13:11:03;;;;;;;15.20;5.55;;;;;;;;;;4988765;28;98408;-75
2023/06/02 13:13:30;;;;;;;14.73;5.38;;;;;;;;;;4989399;28;99300;-74
2023/06/02 13:15:56;;;;;;;23.25;5.40;;;;;;;;;;4987788;28;100110;-77
2023/06/02 13:18:25;;;;;;;16.35;4.43;;;;;;;;;;4980571;28;98249;-76
2023/06/02 13:20:52;;;;;;;22.00;4.75;;;;;;;;;;4988730;28;98708;-77
2023/06/02 13:23:19;;;;;;;20.35;5.30;;;;;;;;;;4985718;28;98346;-77
2023/06/02 13:25:46;;;;;;;23.95;5.22;;;;;;;;;;4982914;28;98820;-78
2023/06/02 13:28:14;;;;;;;31.60;5.60;;;;;;;;;;4987773;28;99942;-76
2023/06/02 13:30:44;;;;;;;14.15;4.47;;;;;;;;;;4983643;28;98259;-76
2023/06/02 13:33:10;;;;;;;11.20;4.57;;;;;;;;;;4983954;28;98522;-76
2023/06/02 13:35:37;;;;;;;13.88;5.25;;;;;;;;;;4978854;28;101312;-78
2023/06/02 13:38:04;;;;;;;17.95;4.55;;;;;;;;;;4976108;28;98528;-77
2023/06/02 13:40:31;;;;;;;16.15;5.07;;;;;;;;;;4987768;28;100194;-76
2023/06/02 13:42:58;;;;;;;17.92;3.95;;;;;;;;;;4993437;28;99461;-78
2023/06/02 13:45:25;;;;;;;24.33;5.35;;;;;;;;;;4988068;28;99436;-77
2023/06/02 13:47:52;;;;;;;15.27;4.93;;;;;;;;;;4989331;28;100135;-75
2023/06/02 13:50:18;;;;;;;21.13;6.05;;;;;;;;;;4989148;28;98238;-76
2023/06/02 13:52:45;;;;;;;20.02;6.22;;;;;;;;;;4988460;28;99407;-76
2023/06/02 13:55:12;;;;;;;16.98;5.07;;;;;;;;;;4988587;28;99970;-76
2023/06/02 13:57:38;;;;;;;21.48;4.90;;;;;;;;;;4988177;28;99942;-76
2023/06/02 14:00:07;;;;;;;18.30;5.22;;;;;;;;;;4988070;28;98670;-76
2023/06/02 14:02:37;;;;;;;16.92;4.85;;;;;;;;;;4988386;28;99152;-76
2023/06/02 14:05:04;;;;;;;29.35;6.90;;;;;;;;;;4984266;28;98008;-76
2023/06/02 14:07:32;;;;;;;21.65;5.10;;;;;;;;;;4987511;28;100040;-77
2023/06/02 14:09:59;;;;;;;22.35;5.57;;;;;;;;;;4988390;28;98698;-77
2023/06/02 14:12:26;;;;;;;18.98;5.40;;;;;;;;;;4988530;28;99821;-77
2023/06/02 14:14:52;;;;;;;19.90;5.93;;;;;;;;;;4988736;28;101014;-76
2023/06/02 14:17:18;;;;;;;16.85;4.68;;;;;;;;;;4980835;28;98360;-76
2023/06/02 14:19:45;;;;;;;25.17;6.10;;;;;;;;;;4987222;28;99658;-78
2023/06/02 14:22:12;;;;;;;18.63;5.43;;;;;;;;;;4988086;28;99418;-76
2023/06/02 14:24:38;;;;;;;21.30;5.93;;;;;;;;;;4987414;28;98776;-76
2023/06/02 14:27:05;;;;;;;18.83;5.35;;;;;;;;;;4989872;28;99649;-77
2023/06/02 14:29:31;;;;;;;21.45;5.40;;;;;;;;;;4988299;28;98266;-77
2023/06/02 14:31:58;;;;;;;24.35;6.20;;;;;;;;;;4988380;28;99589;-75
2023/06/02 14:34:25;;;;;;;15.68;5.00;;;;;;;;;;4986138;28;99855;-77